Veale, Indiana
Current Conditions -  °F | °C
As of 4:35 AM on Friday 31 Oct 2014 (Local Time) from KDCY Reporting Station
Overcast Overcast  
Wind Chill: 46°   Ceiling: 4400
Heat Index: 46°   Visibility: 7mi
Dew Point: 46°   Wind: 3mph
Humidity: 100%   Direction: 320°NW
Pressure: 30.01"   Gusts: NA
Location:  38.6427°N, 87.1768°W
Report Text: KDCY 310935Z AUTO 32003KT 7SM SCT028 BKN044 OVC090 08/08 A3001 RMK AO2 T00750075
Loading
Personal Weather Stations






























Interactive Weather Map
Tropical Storm Tracking
New forecast layout! Learn more

10-Day Weather Forecast

Advertisements
Track Severe Weather on mobile